createdAt,value
2019-05-19T00:00:50.425Z,67.32
2019-05-19T00:03:17.962Z,67.27
2019-05-19T00:05:45.035Z,67.80
2019-05-19T00:08:12.784Z,67.61
2019-05-19T00:10:39.753Z,67.71
2019-05-19T00:13:06.900Z,67.58
2019-05-19T00:15:34.203Z,67.82
2019-05-19T00:18:01.219Z,68.41
2019-05-19T00:20:28.465Z,68.83
2019-05-19T00:22:55.345Z,69.20
2019-05-19T00:25:22.579Z,70.02
2019-05-19T00:27:49.608Z,70.34
2019-05-19T00:58:24.515Z,71.98
2019-05-19T01:27:51.339Z,72.79
2019-05-19T01:30:18.571Z,72.53
2019-05-19T01:32:45.869Z,72.37
2019-05-19T01:35:12.496Z,72.91
2019-05-19T01:37:39.128Z,72.78
2019-05-19T01:40:07.090Z,72.72
2019-05-19T01:42:33.798Z,72.61
2019-05-19T01:45:00.418Z,72.76
2019-05-19T01:47:26.876Z,73.61
2019-05-19T01:49:53.691Z,73.45
2019-05-19T01:52:20.288Z,73.13
2019-05-19T02:26:23.958Z,74.37
2019-05-19T02:28:51.442Z,74.72
2019-05-19T02:31:18.041Z,74.75
2019-05-19T02:42:45.066Z,75.78
2019-05-19T02:45:21.547Z,75.19
2019-05-19T02:56:46.083Z,75.21
2019-05-19T02:59:14.263Z,74.90
2019-05-19T03:02:02.878Z,75.74
2019-05-19T03:04:29.938Z,76.35
2019-05-19T03:06:57.511Z,75.95
2019-05-19T03:09:24.183Z,75.50
2019-05-19T03:11:50.817Z,75.14
2019-05-19T03:14:17.989Z,74.99
2019-05-19T03:16:44.465Z,75.81
2019-05-19T03:19:11.018Z,76.45
2019-05-19T03:21:37.666Z,76.11
2019-05-19T03:24:04.270Z,75.37
2019-05-19T04:03:26.774Z,75.79
2019-05-19T04:05:53.907Z,76.29
2019-05-19T04:08:21.177Z,76.43
2019-05-19T04:35:14.634Z,75.31
2019-05-19T04:37:42.219Z,75.05
2019-05-19T05:25:27.429Z,73.48
2019-05-19T05:31:46.206Z,72.77
2019-05-19T05:38:54.055Z,72.53
2019-05-19T05:41:20.671Z,71.06
2019-05-19T05:43:47.299Z,70.36
2019-05-19T05:46:35.033Z,70.61
2019-05-19T05:52:58.573Z,69.69
2019-05-19T05:55:25.208Z,70.48
2019-05-19T05:58:35.365Z,69.37
2019-05-19T06:05:06.207Z,66.00
2019-05-19T06:30:23.593Z,63.99
2019-05-19T06:37:06.654Z,62.19
2019-05-19T06:39:33.298Z,63.35
2019-05-19T06:41:59.994Z,61.82
2019-05-19T06:44:26.506Z,61.16
2019-05-19T06:46:53.080Z,60.30
2019-05-19T06:49:19.698Z,60.82
2019-05-19T06:51:46.155Z,61.13
2019-05-19T06:54:12.779Z,60.18
2019-05-19T06:56:39.299Z,60.58
2019-05-19T06:59:06.000Z,59.34
2019-05-19T07:01:32.758Z,58.59
2019-05-19T07:03:59.375Z,58.19
2019-05-19T07:06:26.043Z,57.20
2019-05-19T07:08:52.966Z,56.05
2019-05-19T07:11:19.685Z,56.31
2019-05-19T07:13:46.555Z,54.75
2019-05-19T07:16:13.216Z,53.89
2019-05-19T07:18:39.964Z,53.88
2019-05-19T07:21:06.864Z,52.02
2019-05-19T07:23:33.454Z,52.21
2019-05-19T07:26:00.070Z,51.63
2019-05-19T07:28:26.781Z,50.25
2019-05-19T07:30:53.592Z,50.32
2019-05-19T07:33:20.532Z,49.53
2019-05-19T07:35:47.206Z,50.73
2019-05-19T07:38:13.953Z,49.69
2019-05-19T07:40:40.942Z,49.30
2019-05-19T07:43:07.658Z,48.90
2019-05-19T07:45:34.458Z,48.91
2019-05-19T07:48:01.393Z,48.26
2019-05-19T07:50:28.305Z,48.39
2019-05-19T07:52:55.011Z,49.54
2019-05-19T07:55:21.914Z,49.69
2019-05-19T07:57:58.094Z,50.54
2019-05-19T08:00:26.501Z,48.59
2019-05-19T08:02:53.091Z,48.80
2019-05-19T08:05:19.842Z,48.76
2019-05-19T08:07:46.676Z,48.63
2019-05-19T08:10:13.805Z,48.99
2019-05-19T08:12:40.642Z,48.91
2019-05-19T08:15:07.886Z,48.28
2019-05-19T08:17:34.742Z,48.79
2019-05-19T08:20:02.887Z,48.79
2019-05-19T08:22:29.604Z,48.77
2019-05-19T08:24:56.385Z,48.48
2019-05-19T08:27:22.992Z,49.84
2019-05-19T08:29:50.044Z,50.07
2019-05-19T08:32:16.939Z,49.01
2019-05-19T08:34:43.788Z,49.18
2019-05-19T08:37:10.592Z,48.50
2019-05-19T08:39:37.177Z,50.43
2019-05-19T08:42:04.166Z,50.17
2019-05-19T08:44:31.057Z,49.76
2019-05-19T08:46:59.709Z,48.49
2019-05-19T08:49:26.355Z,48.73
2019-05-19T08:51:53.222Z,49.13
2019-05-19T08:54:19.802Z,49.45
2019-05-19T08:56:46.750Z,49.61
2019-05-19T08:59:13.380Z,48.99
2019-05-19T09:01:40.202Z,47.37
2019-05-19T09:04:07.092Z,47.86
2019-05-19T09:06:33.670Z,48.98
2019-05-19T09:09:00.498Z,47.97
2019-05-19T09:11:27.700Z,47.43
2019-05-19T09:13:54.627Z,49.18
2019-05-19T09:16:22.504Z,49.00
2019-05-19T09:18:49.145Z,50.31
2019-05-19T09:21:16.024Z,50.45
2019-05-19T09:23:42.915Z,50.77
2019-05-19T09:26:10.275Z,50.79
2019-05-19T09:28:36.902Z,51.80
2019-05-19T09:31:03.632Z,49.75
2019-05-19T09:33:30.268Z,50.89
2019-05-19T09:35:57.188Z,49.32
2019-05-19T09:38:23.749Z,49.32
2019-05-19T09:40:50.392Z,51.16
2019-05-19T09:43:17.203Z,49.43
2019-05-19T09:45:44.098Z,49.39
2019-05-19T09:48:10.873Z,51.25
2019-05-19T09:50:37.460Z,48.76
2019-05-19T09:53:04.199Z,48.57
2019-05-19T09:55:31.072Z,50.99
2019-05-19T09:57:57.738Z,50.48
2019-05-19T10:00:24.512Z,50.98
2019-05-19T10:02:51.257Z,51.85
2019-05-19T10:05:17.943Z,51.61
2019-05-19T10:07:44.608Z,51.95
2019-05-19T10:10:18.166Z,51.13
2019-05-19T10:12:44.802Z,51.13
2019-05-19T10:15:12.235Z,50.75
2019-05-19T10:17:38.982Z,50.79
2019-05-19T10:20:06.980Z,50.05
2019-05-19T10:22:34.532Z,49.72
2019-05-19T10:25:20.303Z,49.63
2019-05-19T10:27:30.200Z,49.43
2019-05-19T10:29:56.858Z,48.40
2019-05-19T10:32:23.753Z,49.13
2019-05-19T10:34:50.475Z,47.96
2019-05-19T10:37:17.399Z,46.89
2019-05-19T10:39:44.365Z,49.78
2019-05-19T10:42:11.961Z,49.03
2019-05-19T10:44:38.541Z,48.31
2019-05-19T10:47:05.423Z,47.67
2019-05-19T10:49:32.083Z,47.92
2019-05-19T10:51:58.811Z,47.90
2019-05-19T10:54:25.450Z,48.02
2019-05-19T10:56:52.366Z,48.88
2019-05-19T10:59:19.103Z,48.73
2019-05-19T11:01:45.865Z,46.90
2019-05-19T11:04:12.432Z,47.66
2019-05-19T11:06:40.245Z,49.42
2019-05-19T11:09:07.122Z,49.91
2019-05-19T11:11:34.254Z,49.18
2019-05-19T11:14:00.942Z,48.49
2019-05-19T11:16:27.625Z,49.45
2019-05-19T11:18:54.198Z,51.05
2019-05-19T11:21:22.161Z,49.96
2019-05-19T11:23:48.827Z,50.08
2019-05-19T11:26:15.610Z,50.46
2019-05-19T11:28:42.612Z,50.15
2019-05-19T11:31:09.388Z,50.03
2019-05-19T11:33:36.072Z,52.67
2019-05-19T11:36:02.765Z,55.16
2019-05-19T11:38:30.477Z,54.93
2019-05-19T11:40:57.408Z,56.37
2019-05-19T11:43:24.164Z,57.84
2019-05-19T11:45:50.741Z,61.71
2019-05-19T11:48:17.588Z,72.73
2019-05-19T11:50:44.668Z,72.73
2019-05-19T11:53:11.237Z,72.83
2019-05-19T15:53:19.056Z,87.03
2019-05-19T15:55:45.905Z,86.46
2019-05-19T15:58:16.378Z,85.98
2019-05-19T16:00:41.710Z,85.98
2019-05-19T16:03:08.394Z,86.37
2019-05-19T16:05:35.173Z,85.92
2019-05-19T16:08:01.946Z,86.03
2019-05-19T16:10:28.817Z,85.49
2019-05-19T16:12:55.638Z,85.32
2019-05-19T16:15:22.566Z,84.75
2019-05-19T16:17:49.219Z,86.17
2019-05-19T16:20:16.353Z,85.19
2019-05-19T16:22:42.897Z,84.97
2019-05-19T16:25:09.801Z,84.30
2019-05-19T16:27:36.600Z,83.54
2019-05-19T16:30:06.061Z,83.75
2019-05-19T16:32:32.674Z,84.26
2019-05-19T16:34:59.276Z,84.26
2019-05-19T16:37:25.834Z,82.23
2019-05-19T16:39:52.626Z,82.25
2019-05-19T16:42:19.467Z,82.31
2019-05-19T16:44:46.171Z,82.92
2019-05-19T16:47:12.925Z,83.52
2019-05-19T16:49:39.465Z,82.29
2019-05-19T16:52:08.275Z,82.23
2019-05-19T16:54:36.951Z,82.44
2019-05-19T16:57:03.773Z,80.71
2019-05-19T16:59:30.929Z,82.76
2019-05-19T17:01:57.615Z,82.53
2019-05-19T17:04:24.300Z,82.89
2019-05-19T17:06:52.392Z,81.87
2019-05-19T17:09:19.136Z,82.20
2019-05-19T17:11:45.875Z,83.30
2019-05-19T17:14:12.821Z,83.08
2019-05-19T17:16:39.452Z,82.29
2019-05-19T17:19:11.622Z,82.62
2019-05-19T17:21:38.304Z,82.90
2019-05-19T17:24:05.548Z,82.62
2019-05-19T17:26:35.166Z,82.37
2019-05-19T17:29:02.033Z,82.88
2019-05-19T17:31:29.149Z,82.87
2019-05-19T17:33:55.887Z,82.92
2019-05-19T17:36:22.602Z,83.45
2019-05-19T17:38:49.434Z,83.21
2019-05-19T17:41:15.981Z,82.60
2019-05-19T17:43:42.818Z,82.78
2019-05-19T17:46:09.846Z,82.62
2019-05-19T17:48:36.683Z,82.50
2019-05-19T17:51:04.328Z,82.39
2019-05-19T17:53:31.160Z,83.05
2019-05-19T17:55:58.673Z,83.34
2019-05-19T17:58:26.560Z,82.92
2019-05-19T18:00:53.608Z,82.75
2019-05-19T18:03:24.443Z,82.90
2019-05-19T18:05:51.078Z,82.45
2019-05-19T18:08:17.767Z,82.88
2019-05-19T18:10:44.590Z,81.99
2019-05-19T18:13:11.373Z,81.60
2019-05-19T18:15:38.290Z,82.17
2019-05-19T18:18:05.248Z,78.97
2019-05-19T18:20:32.359Z,80.88
2019-05-19T18:22:59.030Z,81.40
2019-05-19T18:25:26.742Z,81.99
2019-05-19T18:27:53.531Z,81.90
2019-05-19T18:30:20.677Z,81.89
2019-05-19T18:32:47.401Z,82.40
2019-05-19T18:35:14.610Z,82.42
2019-05-19T18:37:41.377Z,82.41
2019-05-19T18:40:09.387Z,82.54
2019-05-19T18:42:36.293Z,82.11
2019-05-19T18:45:05.245Z,82.18
2019-05-19T18:47:32.921Z,82.06
2019-05-19T18:49:59.750Z,81.53
2019-05-19T18:52:26.833Z,81.48
2019-05-19T18:54:53.615Z,81.83
2019-05-19T18:57:20.528Z,81.86
2019-05-19T18:59:48.015Z,82.07
2019-05-19T19:02:16.784Z,81.93
2019-05-19T19:04:43.753Z,82.15
2019-05-19T19:07:10.517Z,81.95
2019-05-19T19:09:37.230Z,82.03
2019-05-19T19:12:04.380Z,82.29
2019-05-19T19:14:31.084Z,81.73
2019-05-19T19:16:57.710Z,81.74
2019-05-19T19:19:24.385Z,82.69
2019-05-19T19:21:51.367Z,82.46
2019-05-19T19:24:19.185Z,82.48
2019-05-19T19:26:45.951Z,82.44
2019-05-19T19:29:12.954Z,82.37
2019-05-19T19:31:48.092Z,82.37
2019-05-19T19:34:08.804Z,82.46
2019-05-19T19:36:36.039Z,82.34
2019-05-19T19:39:04.866Z,82.32
2019-05-19T19:41:31.671Z,82.46
2019-05-19T19:43:58.866Z,82.89
2019-05-19T19:46:25.591Z,82.64
2019-05-19T19:48:53.858Z,82.54
2019-05-19T19:51:20.638Z,82.77
2019-05-19T19:53:47.195Z,82.73
2019-05-19T19:56:13.812Z,82.81
2019-05-19T19:58:40.745Z,82.64
2019-05-19T20:01:07.510Z,83.00
2019-05-19T20:03:39.399Z,83.05
2019-05-19T20:06:03.275Z,82.63
2019-05-19T20:08:30.540Z,82.72
2019-05-19T20:10:58.266Z,82.24
2019-05-19T20:13:25.032Z,82.20
2019-05-19T20:15:51.802Z,82.23
2019-05-19T20:18:19.716Z,82.22
2019-05-19T20:20:48.065Z,81.94
2019-05-19T20:23:16.428Z,82.09
2019-05-19T20:25:43.418Z,81.68
2019-05-19T20:28:12.447Z,81.25
2019-05-19T20:30:39.388Z,81.07
2019-05-19T20:33:06.524Z,81.01
2019-05-19T20:35:33.512Z,80.89
2019-05-19T20:38:02.313Z,81.01
2019-05-19T20:40:29.613Z,80.88
2019-05-19T20:42:57.082Z,80.70
2019-05-19T20:45:24.120Z,80.62
2019-05-19T20:47:50.874Z,80.79
2019-05-19T20:50:17.877Z,80.85
2019-05-19T20:52:44.661Z,81.10
2019-05-19T20:55:11.621Z,80.97
2019-05-19T20:57:38.470Z,80.81
2019-05-19T21:00:06.313Z,81.02
2019-05-19T21:02:33.250Z,81.26
2019-05-19T21:05:00.478Z,81.55
2019-05-19T21:07:27.692Z,82.16
2019-05-19T21:09:54.381Z,82.55
2019-05-19T21:12:20.953Z,82.28
2019-05-19T21:14:51.436Z,81.68
2019-05-19T21:17:18.061Z,81.50
2019-05-19T21:19:44.722Z,81.39
2019-05-19T21:22:11.339Z,81.33
2019-05-19T21:24:38.089Z,81.25
2019-05-19T21:27:04.744Z,80.94
2019-05-19T21:29:31.483Z,80.91
2019-05-19T21:31:58.179Z,80.98
2019-05-19T21:34:24.806Z,80.98
2019-05-19T21:36:51.610Z,80.67
2019-05-19T21:39:18.451Z,80.85
2019-05-19T21:41:45.020Z,80.80
2019-05-19T21:44:11.718Z,80.81
2019-05-19T21:46:39.831Z,81.77
2019-05-19T21:49:07.066Z,82.29
2019-05-19T21:51:33.844Z,82.51
2019-05-19T21:54:00.735Z,82.85
2019-05-19T21:56:27.578Z,83.08
2019-05-19T21:58:54.316Z,83.51
2019-05-19T22:01:23.603Z,83.41
2019-05-19T22:03:50.239Z,83.57
2019-05-19T22:06:18.928Z,83.30
2019-05-19T22:08:45.437Z,83.08
2019-05-19T22:11:12.498Z,82.85
2019-05-19T22:13:39.221Z,83.04
2019-05-19T22:16:12.845Z,82.94
2019-05-19T22:18:34.433Z,82.74
2019-05-19T22:21:01.539Z,82.87
2019-05-19T22:23:29.783Z,83.26
2019-05-19T22:25:56.591Z,83.53
2019-05-19T22:28:23.508Z,83.33
2019-05-19T22:30:50.155Z,83.27
2019-05-19T22:33:17.009Z,83.51
2019-05-19T22:35:43.789Z,83.47
2019-05-19T22:38:11.068Z,83.41
2019-05-19T22:40:37.962Z,83.28
2019-05-19T22:43:04.850Z,83.51
2019-05-19T22:45:31.837Z,83.44
2019-05-19T22:47:59.515Z,83.53
2019-05-19T22:50:26.208Z,83.39
2019-05-19T22:52:52.983Z,83.48
2019-05-19T22:55:19.695Z,83.59
2019-05-19T22:57:46.218Z,83.70
2019-05-19T23:00:15.786Z,83.63
2019-05-19T23:02:42.783Z,83.94
2019-05-19T23:05:10.519Z,83.81
2019-05-19T23:07:37.342Z,84.00
2019-05-19T23:10:05.387Z,83.73
2019-05-19T23:12:32.338Z,83.62
2019-05-19T23:14:59.022Z,83.87
2019-05-19T23:17:26.003Z,83.51
2019-05-19T23:19:52.660Z,83.19
2019-05-19T23:22:20.778Z,83.13
2019-05-19T23:24:47.536Z,83.47
2019-05-19T23:27:14.317Z,83.99
2019-05-19T23:29:41.133Z,84.10
2019-05-19T23:32:07.754Z,83.86
2019-05-19T23:34:34.575Z,84.02
2019-05-19T23:37:03.054Z,84.10
2019-05-19T23:39:29.677Z,84.07
2019-05-19T23:41:56.771Z,84.11
2019-05-19T23:44:24.526Z,84.18
2019-05-19T23:46:51.094Z,83.86
2019-05-19T23:49:18.140Z,83.90
2019-05-19T23:51:44.722Z,83.91
2019-05-19T23:54:12.822Z,84.37
2019-05-19T23:56:39.439Z,84.27
2019-05-19T23:59:06.234Z,84.33
